createdAt,value
2016-03-01T00:00:17.872Z,0
2016-03-01T00:01:17.827Z,0
2016-03-01T00:02:17.799Z,0
2016-03-01T00:03:17.771Z,0
2016-03-01T00:04:17.741Z,0
2016-03-01T00:05:17.699Z,0
2016-03-01T00:06:17.685Z,0
2016-03-01T00:07:17.624Z,0
2016-03-01T00:08:17.596Z,0
2016-03-01T00:09:17.584Z,0
2016-03-01T00:10:17.539Z,0
2016-03-01T00:11:17.495Z,0
2016-03-01T00:12:17.482Z,0
2016-03-01T00:13:17.423Z,0
2016-03-01T00:14:17.409Z,0
2016-03-01T00:15:17.381Z,0
2016-03-01T00:16:17.320Z,0
2016-03-01T00:17:17.293Z,0
2016-03-01T00:18:17.279Z,0
2016-03-01T00:19:17.236Z,0
2016-03-01T00:20:17.206Z,0
2016-03-01T00:21:17.179Z,0
2016-03-01T00:22:17.134Z,0
2016-03-01T00:23:17.106Z,0
2016-03-01T00:24:17.062Z,0
2016-03-01T00:25:17.048Z,0
2016-03-01T00:26:17.020Z,0
2016-03-01T00:27:16.960Z,0
2016-03-01T00:28:16.947Z,0
2016-03-01T00:29:16.902Z,0
2016-03-01T00:30:16.861Z,0
2016-03-01T00:31:16.880Z,0
2016-03-01T00:32:16.804Z,0
2016-03-01T00:33:16.760Z,0
2016-03-01T00:34:16.747Z,0
2016-03-01T00:35:16.703Z,0
2016-03-01T00:36:16.659Z,0
2016-03-01T00:37:16.630Z,0
2016-03-01T00:38:16.602Z,0
2016-03-01T00:39:16.557Z,0
2016-03-01T00:40:16.544Z,0
2016-03-01T00:41:16.501Z,0
2016-03-01T00:42:16.457Z,0
2016-03-01T00:43:16.427Z,0
2016-03-01T00:44:16.400Z,0
2016-03-01T00:45:16.355Z,0
2016-03-01T00:46:16.343Z,0
2016-03-01T00:47:16.298Z,0
2016-03-01T00:48:16.254Z,0
2016-03-01T00:49:16.225Z,0
2016-03-01T00:50:16.196Z,0
2016-03-01T00:51:16.153Z,0
2016-03-01T00:52:16.127Z,0
2016-03-01T00:53:16.083Z,0
2016-03-01T00:54:16.055Z,0
2016-03-01T00:55:16.026Z,0
2016-03-01T00:56:15.982Z,0
2016-03-01T00:57:15.954Z,0
2016-03-01T00:58:15.957Z,0
2016-03-01T00:59:15.882Z,0
2016-03-01T01:00:15.852Z,0
2016-03-01T01:01:15.839Z,0
2016-03-01T01:02:15.780Z,0
2016-03-01T01:03:15.768Z,0
2016-03-01T01:04:15.738Z,0
2016-03-01T01:05:15.695Z,0
2016-03-01T01:06:15.650Z,0
2016-03-01T01:07:15.621Z,0
2016-03-01T01:08:15.609Z,0
2016-03-01T01:09:15.627Z,0
2016-03-01T01:10:15.520Z,0
2016-03-01T01:11:15.476Z,0
2016-03-01T01:12:15.447Z,0
2016-03-01T01:13:15.419Z,0
2016-03-01T01:14:15.389Z,0
2016-03-01T01:15:15.346Z,0
2016-03-01T01:16:15.333Z,0
2016-03-01T01:17:15.273Z,0
2016-03-01T01:18:15.260Z,0
2016-03-01T01:19:15.216Z,0
2016-03-01T01:20:15.187Z,0
2016-03-01T01:21:15.175Z,0
2016-03-01T01:22:15.116Z,0
2016-03-01T01:23:15.071Z,0
2016-03-01T01:24:15.058Z,0
2016-03-01T01:25:15.013Z,0
2016-03-01T01:26:14.985Z,0
2016-03-01T01:27:14.957Z,0
2016-03-01T01:28:14.943Z,0
2016-03-01T01:29:14.884Z,0
2016-03-01T01:30:14.854Z,0
2016-03-01T01:31:14.810Z,0
2016-03-01T01:32:14.782Z,0
2016-03-01T01:33:14.754Z,0
2016-03-01T01:34:14.710Z,0
2016-03-01T01:35:14.696Z,0
2016-03-01T01:36:14.637Z,0
2016-03-01T01:37:14.608Z,0
2016-03-01T01:38:14.580Z,0
2016-03-01T01:39:14.582Z,0
2016-03-01T01:40:14.507Z,0
2016-03-01T01:41:14.479Z,0
2016-03-01T01:42:14.450Z,0
2016-03-01T01:43:14.453Z,0
2016-03-01T01:44:14.377Z,0
2016-03-01T01:45:14.348Z,0
2016-03-01T01:46:14.320Z,0
2016-03-01T01:47:14.292Z,0
2016-03-01T01:48:14.247Z,0
2016-03-01T01:49:14.219Z,0
2016-03-01T01:50:14.174Z,0
2016-03-01T01:51:14.146Z,0
2016-03-01T01:52:14.102Z,0
2016-03-01T01:53:14.089Z,0
2016-03-01T01:54:14.044Z,0
2016-03-01T01:55:14.000Z,0
2016-03-01T01:56:13.987Z,0
2016-03-01T01:57:13.944Z,0
2016-03-01T01:58:13.915Z,0
2016-03-01T01:59:13.886Z,0
2016-03-01T02:00:13.842Z,0
2016-03-01T02:01:13.798Z,0
2016-03-01T02:02:13.785Z,0
2016-03-01T02:03:13.741Z,0
2016-03-01T02:04:13.728Z,0
2016-03-01T02:05:13.590Z,0
2016-03-01T02:06:13.640Z,0
2016-03-01T02:07:13.612Z,0
2016-03-01T02:08:13.567Z,0
2016-03-01T02:09:13.538Z,0
2016-03-01T02:10:13.494Z,0
2016-03-01T02:11:13.481Z,0
2016-03-01T02:12:13.437Z,0
2016-03-01T02:13:13.393Z,0
2016-03-01T02:14:13.364Z,0
2016-03-01T02:15:13.336Z,0
2016-03-01T02:16:13.306Z,0
2016-03-01T02:17:13.309Z,0
2016-03-01T02:18:13.234Z,0
2016-03-01T02:19:13.205Z,0
2016-03-01T02:20:13.177Z,0
2016-03-01T02:21:13.129Z,0
2016-03-01T02:22:13.380Z,0
2016-03-01T02:23:13.819Z,0
2016-03-01T02:24:18.414Z,0
2016-03-01T02:25:13.135Z,0
2016-03-01T02:26:12.952Z,0
2016-03-01T02:27:12.922Z,0
2016-03-01T02:28:12.910Z,0
2016-03-01T02:29:12.850Z,0
2016-03-01T02:30:12.822Z,0
2016-03-01T02:31:12.543Z,0
2016-03-01T02:32:12.749Z,0
2016-03-01T02:33:12.720Z,0
2016-03-01T02:34:12.676Z,0
2016-03-01T02:35:12.663Z,0
2016-03-01T02:36:12.634Z,0
2016-03-01T02:37:12.574Z,0
2016-03-01T02:38:12.545Z,0
2016-03-01T02:39:12.549Z,0
2016-03-01T02:40:12.473Z,0
2016-03-01T02:41:12.460Z,0
2016-03-01T02:42:12.401Z,0
2016-03-01T02:43:12.372Z,0
2016-03-01T02:44:12.343Z,0
2016-03-01T02:45:12.298Z,0
2016-03-01T02:46:12.301Z,0
2016-03-01T02:47:12.258Z,0
2016-03-01T02:48:12.195Z,0
2016-03-01T02:49:12.167Z,0
2016-03-01T02:50:12.169Z,0
2016-03-01T02:51:12.094Z,0
2016-03-01T02:52:12.065Z,0
2016-03-01T02:53:12.052Z,0
2016-03-01T02:54:11.992Z,0
2016-03-01T02:55:11.964Z,0
2016-03-01T02:56:11.935Z,0
2016-03-01T02:57:11.891Z,0
2016-03-01T02:58:11.878Z,0
2016-03-01T02:59:11.850Z,0
2016-03-01T03:00:11.790Z,0
2016-03-01T03:01:11.777Z,0
2016-03-01T03:02:11.716Z,0
2016-03-01T03:03:11.688Z,0
2016-03-01T03:04:11.644Z,0
2016-03-01T03:05:11.632Z,0
2016-03-01T03:06:11.587Z,0
2016-03-01T03:07:11.543Z,0
2016-03-01T03:08:11.515Z,0
2016-03-01T03:09:11.486Z,0
2016-03-01T03:10:11.442Z,0
2016-03-01T03:11:11.413Z,0
2016-03-01T03:12:11.384Z,0
2016-03-01T03:13:11.340Z,0
2016-03-01T03:14:11.312Z,0
2016-03-01T03:15:11.267Z,0
2016-03-01T03:16:11.301Z,0
2016-03-01T03:17:11.211Z,0
2016-03-01T03:18:11.181Z,0
2016-03-01T03:19:11.137Z,0
2016-03-01T03:20:11.109Z,0
2016-03-01T03:21:11.064Z,0
2016-03-01T03:22:11.036Z,0
2016-03-01T03:23:11.008Z,0
2016-03-01T03:24:10.964Z,0
2016-03-01T03:25:10.935Z,0
2016-03-01T03:26:10.923Z,0
2016-03-01T03:27:10.863Z,0
2016-03-01T03:28:10.834Z,0
2016-03-01T03:29:10.805Z,0
2016-03-01T03:30:10.761Z,0
2016-03-01T03:31:10.591Z,0
2016-03-01T03:32:10.688Z,0
2016-03-01T03:33:10.660Z,0
2016-03-01T03:34:10.632Z,0
2016-03-01T03:35:10.587Z,0
2016-03-01T03:36:10.543Z,0
2016-03-01T03:37:10.530Z,0
2016-03-01T03:38:10.485Z,0
2016-03-01T03:39:10.458Z,0
2016-03-01T03:40:10.429Z,0
2016-03-01T03:41:10.385Z,0
2016-03-01T03:42:10.356Z,0
2016-03-01T03:43:10.327Z,0
2016-03-01T03:44:10.268Z,0
2016-03-01T03:45:10.255Z,0
2016-03-01T03:46:10.210Z,0
2016-03-01T03:47:10.182Z,0
2016-03-01T03:48:10.137Z,0
2016-03-01T03:49:10.109Z,0
2016-03-01T03:50:10.064Z,0
2016-03-01T03:51:10.037Z,0
2016-03-01T03:52:10.039Z,0
2016-03-01T03:53:09.979Z,0
2016-03-01T03:54:09.935Z,0
2016-03-01T03:55:09.906Z,0
2016-03-01T03:56:09.877Z,0
2016-03-01T03:57:09.819Z,0
2016-03-01T03:58:09.790Z,0
2016-03-01T03:59:09.761Z,0
2016-03-01T04:00:09.716Z,0
2016-03-01T04:01:09.704Z,0
2016-03-01T04:02:09.660Z,0
2016-03-01T04:03:09.663Z,0
2016-03-01T04:04:09.588Z,0
2016-03-01T04:05:09.574Z,0
2016-03-01T04:06:09.546Z,0
2016-03-01T04:07:09.485Z,0
2016-03-01T04:08:09.519Z,0
2016-03-01T04:09:09.412Z,0
2016-03-01T04:10:09.385Z,0
2016-03-01T04:11:09.351Z,0
2016-03-01T04:12:09.307Z,0
2016-03-01T04:13:09.279Z,0
2016-03-01T04:14:09.234Z,0
2016-03-01T04:15:09.205Z,0
2016-03-01T04:16:09.177Z,0
2016-03-01T04:17:09.132Z,0
2016-03-01T04:18:09.120Z,0
2016-03-01T04:19:09.076Z,0
2016-03-01T04:20:09.031Z,0
2016-03-01T04:21:09.004Z,0
2016-03-01T04:22:08.959Z,0
2016-03-01T04:23:08.931Z,0
2016-03-01T04:24:08.917Z,0
2016-03-01T04:25:08.873Z,0
2016-03-01T04:26:08.829Z,0
2016-03-01T04:27:08.785Z,0
2016-03-01T04:28:08.756Z,0
2016-03-01T04:29:08.728Z,0
2016-03-01T04:30:08.683Z,0
2016-03-01T04:31:08.655Z,0
2016-03-01T04:32:08.455Z,0
2016-03-01T04:33:08.583Z,0
2016-03-01T04:34:08.554Z,0
2016-03-01T04:35:08.509Z,0
2016-03-01T04:36:08.481Z,0
2016-03-01T04:37:08.452Z,0
2016-03-01T04:38:08.408Z,0
2016-03-01T04:39:08.380Z,0
2016-03-01T04:40:08.351Z,0
2016-03-01T04:41:08.291Z,0
2016-03-01T04:42:08.263Z,0
2016-03-01T04:43:08.249Z,0
2016-03-01T04:44:08.190Z,0
2016-03-01T04:45:08.161Z,0
2016-03-01T04:46:08.133Z,0
2016-03-01T04:47:08.088Z,0
2016-03-01T04:48:08.060Z,0
2016-03-01T04:49:08.031Z,0
2016-03-01T04:50:08.003Z,0
2016-03-01T04:51:08.051Z,0
2016-03-01T04:52:07.759Z,0
2016-03-01T04:53:07.870Z,0
2016-03-01T04:54:07.873Z,0
2016-03-01T04:55:07.812Z,0
2016-03-01T04:56:07.769Z,0
2016-03-01T04:57:07.787Z,0
2016-03-01T04:58:07.712Z,0
2016-03-01T04:59:07.684Z,0
2016-03-01T05:00:07.655Z,0
2016-03-01T05:01:07.611Z,0
2016-03-01T05:02:07.566Z,0
2016-03-01T05:03:07.538Z,0
2016-03-01T05:04:07.493Z,0
2016-03-01T05:05:07.465Z,0
2016-03-01T05:06:07.452Z,0
2016-03-01T05:07:07.392Z,0
2016-03-01T05:08:07.364Z,0
2016-03-01T05:09:07.319Z,0
2016-03-01T05:10:07.307Z,0
2016-03-01T05:11:07.262Z,0
2016-03-01T05:12:07.218Z,0
2016-03-01T05:13:07.190Z,0
2016-03-01T05:14:07.161Z,0
2016-03-01T05:15:07.116Z,0
2016-03-01T05:16:07.088Z,0
2016-03-01T05:17:07.060Z,0
2016-03-01T05:18:07.016Z,0
2016-03-01T05:19:06.986Z,0
2016-03-01T05:20:06.947Z,0
2016-03-01T05:21:06.875Z,0
2016-03-01T05:22:06.836Z,0
2016-03-01T05:23:06.812Z,0
2016-03-01T05:24:06.757Z,0
2016-03-01T05:25:06.708Z,0
2016-03-01T05:26:06.691Z,0
2016-03-01T05:27:06.627Z,0
2016-03-01T05:28:06.595Z,0
2016-03-01T05:29:06.562Z,0
2016-03-01T05:30:06.517Z,0
2016-03-01T05:31:06.487Z,0
2016-03-01T05:32:06.441Z,0
2016-03-01T05:33:06.411Z,0
2016-03-01T05:34:06.365Z,0
2016-03-01T05:35:06.335Z,0
2016-03-01T05:36:06.323Z,0
2016-03-01T05:37:06.262Z,0
2016-03-01T05:38:06.233Z,0
2016-03-01T05:39:06.188Z,0
2016-03-01T05:40:06.159Z,0
2016-03-01T05:41:06.147Z,4
2016-03-01T05:42:06.102Z,4
2016-03-01T05:43:06.073Z,4
2016-03-01T05:44:06.044Z,4
2016-03-01T05:45:05.984Z,4
2016-03-01T05:46:05.956Z,4
2016-03-01T05:47:05.959Z,4
2016-03-01T05:48:05.899Z,8
2016-03-01T05:49:05.855Z,8
2016-03-01T05:50:05.810Z,8
2016-03-01T05:51:05.797Z,8
2016-03-01T05:52:05.752Z,12
2016-03-01T05:53:05.709Z,16
2016-03-01T05:54:05.696Z,20
2016-03-01T05:55:05.636Z,24
2016-03-01T05:56:05.608Z,24
2016-03-01T05:57:05.595Z,32
2016-03-01T05:58:05.534Z,36
2016-03-01T05:59:05.507Z,40
2016-03-01T06:00:05.478Z,52
2016-03-01T06:01:05.434Z,60
2016-03-01T06:02:05.405Z,72
2016-03-01T06:03:05.361Z,88
2016-03-01T06:04:05.332Z,104
2016-03-01T06:05:05.288Z,128
2016-03-01T06:06:05.259Z,152
2016-03-01T06:07:05.215Z,180
2016-03-01T06:08:05.187Z,208
2016-03-01T06:09:05.158Z,236
2016-03-01T06:10:05.114Z,272
2016-03-01T06:11:04.928Z,308
2016-03-01T06:12:05.057Z,344
2016-03-01T06:13:05.028Z,384
2016-03-01T06:14:04.984Z,428
2016-03-01T06:15:04.956Z,472
2016-03-01T06:16:04.911Z,520
2016-03-01T06:17:04.883Z,564
2016-03-01T06:18:04.854Z,612
2016-03-01T06:19:04.810Z,664
2016-03-01T06:20:04.782Z,716
2016-03-01T06:21:04.753Z,776
2016-03-01T06:22:04.724Z,836
2016-03-01T06:23:04.680Z,904
2016-03-01T06:24:04.635Z,976
2016-03-01T06:25:04.608Z,1048
2016-03-01T06:26:04.594Z,1128
2016-03-01T06:27:04.535Z,1212
2016-03-01T06:28:04.507Z,1304
2016-03-01T06:29:04.462Z,1392
2016-03-01T06:30:04.434Z,1480
2016-03-01T06:31:04.405Z,1572
2016-03-01T06:32:04.423Z,1672
2016-03-01T06:33:04.332Z,1768
2016-03-01T06:34:04.320Z,1872
2016-03-01T06:35:04.259Z,1976
2016-03-01T06:36:04.246Z,2084
2016-03-01T06:37:04.202Z,2192
2016-03-01T06:38:04.159Z,2296
2016-03-01T06:39:04.129Z,2408
2016-03-01T06:40:04.086Z,2508
2016-03-01T06:41:04.056Z,2604
2016-03-01T06:42:04.028Z,2696
2016-03-01T06:43:04.000Z,2792
2016-03-01T06:44:03.956Z,2884
2016-03-01T06:45:03.927Z,2976
2016-03-01T06:46:03.883Z,3068
2016-03-01T06:47:03.870Z,3152
2016-03-01T06:48:03.825Z,3228
2016-03-01T06:49:03.797Z,3312
2016-03-01T06:50:03.752Z,3392
2016-03-01T06:51:03.724Z,3472
2016-03-01T06:52:03.696Z,3556
2016-03-01T06:53:03.651Z,3616
2016-03-01T06:54:03.623Z,3668
2016-03-01T06:55:03.579Z,3712
2016-03-01T06:56:03.550Z,3760
2016-03-01T06:57:03.522Z,3820
2016-03-01T06:58:03.493Z,3864
2016-03-01T06:59:03.496Z,3856
2016-03-01T07:00:03.421Z,3848
2016-03-01T07:01:03.423Z,3868
2016-03-01T07:02:03.395Z,3912
2016-03-01T07:03:03.319Z,3972
2016-03-01T07:04:03.291Z,4048
2016-03-01T07:05:03.246Z,4104
2016-03-01T07:06:03.234Z,4160
2016-03-01T07:07:03.189Z,4192
2016-03-01T07:08:03.161Z,4212
2016-03-01T07:09:03.117Z,4232
2016-03-01T07:10:03.088Z,4248
2016-03-01T07:11:03.059Z,4276
2016-03-01T07:12:03.031Z,4316
2016-03-01T07:13:02.986Z,4372
2016-03-01T07:14:02.943Z,4440
2016-03-01T07:15:02.930Z,4500
2016-03-01T07:16:02.886Z,4548
2016-03-01T07:17:02.888Z,4580
2016-03-01T07:18:02.828Z,4592
2016-03-01T07:19:02.784Z,4588
2016-03-01T07:20:02.771Z,4612
2016-03-01T07:21:02.727Z,4632
2016-03-01T07:22:02.714Z,4664
2016-03-01T07:23:02.686Z,4704
2016-03-01T07:24:02.641Z,4768
2016-03-01T07:25:02.675Z,4852
2016-03-01T07:26:02.568Z,4952
2016-03-01T07:27:02.525Z,5048
2016-03-01T07:28:02.496Z,5152
2016-03-01T07:29:02.483Z,5244
2016-03-01T07:30:02.423Z,5316
2016-03-01T07:31:02.410Z,5376
2016-03-01T07:32:02.396Z,5432
2016-03-01T07:33:02.353Z,5500
2016-03-01T07:34:02.340Z,5564
2016-03-01T07:35:02.280Z,5648
2016-03-01T07:36:02.236Z,5708
2016-03-01T07:37:02.239Z,5756
2016-03-01T07:38:02.163Z,5796
2016-03-01T07:39:02.150Z,5784
2016-03-01T07:40:02.137Z,5820
2016-03-01T07:41:02.078Z,5872
2016-03-01T07:42:02.049Z,5936
2016-03-01T07:43:02.037Z,6036
2016-03-01T07:44:01.976Z,6112
2016-03-01T07:45:01.947Z,6180
2016-03-01T07:46:01.950Z,6220
2016-03-01T07:47:01.891Z,6276
2016-03-01T07:48:01.847Z,6304
2016-03-01T07:49:01.818Z,6300
2016-03-01T07:50:01.820Z,6340
2016-03-01T07:51:01.776Z,6376
2016-03-01T07:52:01.733Z,6448
2016-03-01T07:53:01.703Z,6532
2016-03-01T07:54:01.660Z,6656
2016-03-01T07:55:01.646Z,6764
2016-03-01T07:56:01.618Z,6880
2016-03-01T07:57:01.589Z,6996
2016-03-01T07:58:01.529Z,7104
2016-03-01T07:59:01.345Z,7204
2016-03-01T08:00:01.472Z,7316
2016-03-01T08:01:01.428Z,7448
2016-03-01T08:02:01.415Z,7584
2016-03-01T08:03:01.387Z,7704
2016-03-01T08:04:01.343Z,7792
2016-03-01T08:05:01.329Z,7888
2016-03-01T08:06:01.285Z,7968
2016-03-01T08:07:01.257Z,8024
2016-03-01T08:08:01.243Z,8100
2016-03-01T08:09:01.184Z,8180
2016-03-01T08:10:01.156Z,8264
2016-03-01T08:11:01.127Z,8360
2016-03-01T08:12:01.098Z,8448
2016-03-01T08:13:01.070Z,8520
2016-03-01T08:14:01.198Z,8568
2016-03-01T08:15:00.997Z,8608
2016-03-01T08:16:00.984Z,8660
2016-03-01T08:17:00.955Z,8748
2016-03-01T08:18:00.912Z,8848
2016-03-01T08:19:00.898Z,8932
2016-03-01T08:20:00.839Z,8968
2016-03-01T08:21:00.326Z,9020
2016-03-01T08:22:00.797Z,9112
2016-03-01T08:23:00.769Z,9212
2016-03-01T08:24:00.724Z,9276
2016-03-01T08:25:00.696Z,9384
2016-03-01T08:26:00.667Z,9440
2016-03-01T08:27:00.638Z,9500
2016-03-01T08:28:00.594Z,9624
2016-03-01T08:29:00.566Z,9716
2016-03-01T08:30:00.568Z,9836
2016-03-01T08:31:00.524Z,9936
2016-03-01T08:32:00.496Z,10020
2016-03-01T08:33:00.452Z,10112
2016-03-01T08:34:00.438Z,10220
2016-03-01T08:35:00.379Z,10424
2016-03-01T08:36:00.382Z,10572
2016-03-01T08:37:00.338Z,10696
2016-03-01T08:38:00.324Z,10780
2016-03-01T08:39:00.264Z,10844
2016-03-01T08:40:00.237Z,10888
2016-03-01T08:41:00.207Z,10944
2016-03-01T08:42:00.195Z,10964
2016-03-01T08:43:00.135Z,11012
2016-03-01T08:44:00.169Z,11000
2016-03-01T08:45:00.093Z,11020
2016-03-01T08:46:00.111Z,11060
2016-03-01T08:47:00.021Z,11100
2016-03-01T08:48:00.008Z,11164
2016-03-01T08:48:59.978Z,11188
2016-03-01T08:49:59.935Z,11276
2016-03-01T08:50:59.906Z,11340
2016-03-01T08:51:59.878Z,11392
2016-03-01T08:52:59.850Z,11444
2016-03-01T08:53:59.868Z,11424
2016-03-01T08:54:59.777Z,11492
2016-03-01T08:55:59.747Z,11576
2016-03-01T08:56:59.736Z,11672
2016-03-01T08:57:59.707Z,11748
2016-03-01T08:58:59.678Z,11828
2016-03-01T08:59:59.649Z,11932
2016-03-01T09:00:59.668Z,12060
2016-03-01T09:01:59.593Z,12144
2016-03-01T09:02:59.548Z,12272
2016-03-01T09:03:59.535Z,12408
2016-03-01T09:04:59.522Z,12508
2016-03-01T09:05:59.478Z,12620
2016-03-01T09:06:59.434Z,12732
2016-03-01T09:07:59.405Z,12828
2016-03-01T09:08:59.392Z,12880
2016-03-01T09:09:59.364Z,12980
2016-03-01T09:10:59.334Z,13076
2016-03-01T09:11:59.291Z,13212
2016-03-01T09:12:59.278Z,13372
2016-03-01T09:13:59.250Z,13532
2016-03-01T09:14:59.206Z,13716
2016-03-01T09:15:59.192Z,13904
2016-03-01T09:16:59.164Z,14132
2016-03-01T09:17:59.135Z,14376
2016-03-01T09:18:59.123Z,14536
2016-03-01T09:19:59.078Z,14768
2016-03-01T09:20:59.034Z,15020
2016-03-01T09:21:59.021Z,15208
2016-03-01T09:22:59.070Z,15372
2016-03-01T09:23:58.964Z,15528
2016-03-01T09:24:58.935Z,15656
2016-03-01T09:25:58.908Z,15808
2016-03-01T09:26:58.878Z,16088
2016-03-01T09:27:58.865Z,16176
2016-03-01T09:28:58.821Z,16288
2016-03-01T09:29:58.793Z,16356
2016-03-01T09:30:58.764Z,16548
2016-03-01T09:31:58.751Z,16612
2016-03-01T09:32:59.019Z,16744
2016-03-01T09:33:58.694Z,16844
2016-03-01T09:34:58.727Z,16924
2016-03-01T09:35:58.621Z,16992
2016-03-01T09:36:58.608Z,17052
2016-03-01T09:37:58.596Z,17160
2016-03-01T09:38:58.551Z,17264
2016-03-01T09:39:58.523Z,17376
2016-03-01T09:40:58.494Z,17452
2016-03-01T09:41:58.465Z,17760
2016-03-01T09:42:58.436Z,17888
2016-03-01T09:43:58.408Z,17888
2016-03-01T09:44:58.379Z,17856
2016-03-01T09:45:58.351Z,17888
2016-03-01T09:46:58.322Z,17856
2016-03-01T09:47:58.310Z,17824
2016-03-01T09:48:58.281Z,17760
2016-03-01T09:49:58.361Z,17696
2016-03-01T09:50:58.224Z,17664
2016-03-01T09:51:58.211Z,17420
2016-03-01T09:52:58.166Z,17396
2016-03-01T09:53:58.185Z,17396
2016-03-01T09:54:58.250Z,17348
2016-03-01T09:55:58.081Z,17332
2016-03-01T09:56:58.068Z,17260
2016-03-01T09:57:58.056Z,17152
2016-03-01T09:58:57.996Z,17112
2016-03-01T09:59:57.999Z,17052
2016-03-01T10:00:57.954Z,17024
2016-03-01T10:01:57.941Z,16984
2016-03-01T10:02:57.897Z,16988
2016-03-01T10:03:57.884Z,17012
2016-03-01T10:04:57.855Z,17120
2016-03-01T10:05:57.827Z,17224
2016-03-01T10:06:57.643Z,17296
2016-03-01T10:07:57.785Z,17492
2016-03-01T10:08:57.851Z,17856
2016-03-01T10:09:57.729Z,18016
2016-03-01T10:10:57.684Z,18112
2016-03-01T10:11:57.687Z,18208
2016-03-01T10:12:57.659Z,18336
2016-03-01T10:13:57.614Z,18400
2016-03-01T10:14:57.585Z,18560
2016-03-01T10:15:57.572Z,18752
2016-03-01T10:16:57.544Z,18848
2016-03-01T10:17:57.515Z,18912
2016-03-01T10:18:57.486Z,18944
2016-03-01T10:19:57.490Z,19072
2016-03-01T10:20:57.461Z,19136
2016-03-01T10:21:57.416Z,19232
2016-03-01T10:22:57.403Z,19168
2016-03-01T10:23:57.469Z,19232
2016-03-01T10:24:57.362Z,19296
2016-03-01T10:25:57.302Z,19200
2016-03-01T10:26:57.289Z,19168
2016-03-01T10:27:57.261Z,19168
2016-03-01T10:28:57.279Z,19168
2016-03-01T10:29:57.219Z,19200
2016-03-01T10:30:57.191Z,19328
2016-03-01T10:31:57.163Z,19424
2016-03-01T10:32:57.133Z,19552
2016-03-01T10:33:57.105Z,19680
2016-03-01T10:34:57.093Z,19712
2016-03-01T10:35:57.063Z,19712
2016-03-01T10:36:57.051Z,19712
2016-03-01T10:37:57.006Z,19744
2016-03-01T10:38:57.010Z,19808
2016-03-01T10:39:56.965Z,19808
2016-03-01T10:40:56.952Z,19904
2016-03-01T10:41:56.908Z,19872
2016-03-01T10:42:56.879Z,19968
2016-03-01T10:43:56.867Z,19968
2016-03-01T10:44:56.870Z,19968
2016-03-01T10:45:56.841Z,19936
2016-03-01T10:46:56.796Z,19936
2016-03-01T10:47:56.767Z,19968
2016-03-01T10:48:56.756Z,19904
2016-03-01T10:49:56.726Z,19904
2016-03-01T10:50:56.792Z,19904
2016-03-01T10:51:56.654Z,19968
2016-03-01T10:52:56.641Z,20000
2016-03-01T10:53:56.611Z,20064
2016-03-01T10:54:56.599Z,20096
2016-03-01T10:55:56.570Z,20256
2016-03-01T10:56:56.542Z,20416
2016-03-01T10:57:56.529Z,20544
2016-03-01T10:58:56.500Z,20608
2016-03-01T10:59:56.472Z,20640
2016-03-01T11:00:56.552Z,20704
2016-03-01T11:01:56.447Z,20768
2016-03-01T11:02:56.386Z,20832
2016-03-01T11:03:56.374Z,21024
2016-03-01T11:04:56.360Z,21216
2016-03-01T11:05:56.332Z,21376
2016-03-01T11:06:56.304Z,21568
2016-03-01T11:07:56.290Z,21696
2016-03-01T11:08:56.246Z,21792
2016-03-01T11:09:56.233Z,21888
2016-03-01T11:10:56.205Z,22016
2016-03-01T11:11:56.020Z,22048
2016-03-01T11:12:56.148Z,22144
2016-03-01T11:13:56.135Z,22080
2016-03-01T11:14:56.106Z,22048
2016-03-01T11:15:56.078Z,22048
2016-03-01T11:16:56.049Z,22048
2016-03-01T11:17:56.036Z,22016
2016-03-01T11:18:55.992Z,22016
2016-03-01T11:19:55.978Z,22016
2016-03-01T11:20:55.967Z,22016
2016-03-01T11:21:55.937Z,22112
2016-03-01T11:22:55.909Z,22176
2016-03-01T11:23:55.895Z,22272
2016-03-01T11:24:55.867Z,22400
2016-03-01T11:25:55.838Z,22496
2016-03-01T11:26:55.811Z,22624
2016-03-01T11:27:55.797Z,22752
2016-03-01T11:28:55.769Z,22752
2016-03-01T11:29:55.740Z,22784
2016-03-01T11:30:55.727Z,22752
2016-03-01T11:31:55.714Z,22752
2016-03-01T11:32:55.685Z,22752
2016-03-01T11:33:55.673Z,22720
2016-03-01T11:34:55.629Z,22752
2016-03-01T11:35:55.599Z,22720
2016-03-01T11:36:55.587Z,22688
2016-03-01T11:37:55.574Z,22688
2016-03-01T11:38:55.546Z,22720
2016-03-01T11:39:55.517Z,22720
2016-03-01T11:40:55.504Z,22752
2016-03-01T11:41:55.476Z,22784
2016-03-01T11:42:55.493Z,22784
2016-03-01T11:43:55.419Z,22816
2016-03-01T11:44:55.406Z,22848
2016-03-01T11:45:55.377Z,22880
2016-03-01T11:46:55.364Z,22912
2016-03-01T11:47:55.335Z,22912
2016-03-01T11:48:55.307Z,22912
2016-03-01T11:49:55.294Z,22944
2016-03-01T11:50:55.281Z,22912
2016-03-01T11:51:55.237Z,22912
2016-03-01T11:52:55.239Z,22880
2016-03-01T11:53:55.243Z,22816
2016-03-01T11:54:55.183Z,22688
2016-03-01T11:55:55.232Z,22656
2016-03-01T11:56:55.125Z,22656
2016-03-01T11:57:55.112Z,22624
2016-03-01T11:58:55.083Z,22624
2016-03-01T11:59:55.071Z,22624
2016-03-01T12:00:55.041Z,22592
2016-03-01T12:01:55.014Z,22592
2016-03-01T12:02:55.516Z,22592
2016-03-01T12:03:55.191Z,22560
2016-03-01T12:04:54.944Z,22528
2016-03-01T12:05:54.930Z,22496
2016-03-01T12:06:54.919Z,22496
2016-03-01T12:07:54.875Z,22496
2016-03-01T12:08:54.861Z,22496
2016-03-01T12:09:54.849Z,22432
2016-03-01T12:10:54.851Z,22368
2016-03-01T12:11:54.808Z,22336
2016-03-01T12:12:54.778Z,22272
2016-03-01T12:13:54.750Z,22240
2016-03-01T12:14:54.738Z,22176
2016-03-01T12:15:54.724Z,22080
2016-03-01T12:16:54.680Z,21984
2016-03-01T12:17:54.667Z,21760
2016-03-01T12:18:54.638Z,21472
2016-03-01T12:19:54.610Z,21184
2016-03-01T12:20:54.596Z,20864
2016-03-01T12:21:54.585Z,20576
2016-03-01T12:22:54.555Z,20320
2016-03-01T12:23:54.543Z,20160
2016-03-01T12:24:54.515Z,20032
2016-03-01T12:25:54.485Z,19904
2016-03-01T12:26:54.472Z,19872
2016-03-01T12:27:54.428Z,19904
2016-03-01T12:28:54.415Z,20032
2016-03-01T12:29:54.386Z,20160
2016-03-01T12:30:54.373Z,20192
2016-03-01T12:31:54.361Z,20192
2016-03-01T12:32:54.332Z,20128
2016-03-01T12:33:54.304Z,20032
2016-03-01T12:34:54.275Z,20000
2016-03-01T12:35:54.309Z,20000
2016-03-01T12:36:54.249Z,20000
2016-03-01T12:37:54.221Z,19968
2016-03-01T12:38:54.208Z,19840
2016-03-01T12:39:54.163Z,19584
2016-03-01T12:40:54.151Z,19232
2016-03-01T12:41:54.138Z,18816
2016-03-01T12:42:54.109Z,18464
2016-03-01T12:43:54.097Z,18144
2016-03-01T12:44:54.084Z,17920
2016-03-01T12:45:54.039Z,17696
2016-03-01T12:46:54.042Z,17568
2016-03-01T12:47:53.998Z,17408
2016-03-01T12:48:53.985Z,17312
2016-03-01T12:49:53.957Z,17216
2016-03-01T12:50:53.943Z,17184
2016-03-01T12:51:53.899Z,17248
2016-03-01T12:52:53.886Z,17280
2016-03-01T12:53:53.873Z,17312
2016-03-01T12:54:53.845Z,17376
2016-03-01T12:55:53.816Z,17440
2016-03-01T12:56:53.804Z,17568
2016-03-01T12:57:53.774Z,17696
2016-03-01T12:58:53.761Z,17792
2016-03-01T12:59:53.734Z,17888
2016-03-01T13:00:53.751Z,17952
2016-03-01T13:01:53.676Z,17952
2016-03-01T13:02:53.695Z,17920
2016-03-01T13:03:53.634Z,17856
2016-03-01T13:04:53.606Z,17696
2016-03-01T13:05:53.609Z,17600
2016-03-01T13:06:53.580Z,17472
2016-03-01T13:07:53.551Z,17280
2016-03-01T13:08:53.664Z,17216
2016-03-01T13:09:53.511Z,16948
2016-03-01T13:10:53.481Z,16868
2016-03-01T13:11:53.453Z,16800
2016-03-01T13:12:53.439Z,16740
2016-03-01T13:13:53.412Z,16704
2016-03-01T13:14:53.400Z,16608
2016-03-01T13:15:53.386Z,16448
2016-03-01T13:16:53.342Z,16256
2016-03-01T13:17:53.360Z,16020
2016-03-01T13:18:53.316Z,15764
2016-03-01T13:19:53.287Z,15484
2016-03-01T13:20:53.259Z,15212
2016-03-01T13:21:53.230Z,14968
2016-03-01T13:22:53.513Z,14800
2016-03-01T13:23:53.188Z,14704
2016-03-01T13:24:53.176Z,14680
2016-03-01T13:25:53.147Z,14684
2016-03-01T13:26:53.118Z,14672
2016-03-01T13:27:53.105Z,14644
2016-03-01T13:28:53.061Z,14596
2016-03-01T13:29:53.065Z,14516
2016-03-01T13:30:53.035Z,14404
2016-03-01T13:31:53.022Z,14272
2016-03-01T13:32:52.979Z,14124
2016-03-01T13:33:52.965Z,13980
2016-03-01T13:34:52.937Z,13816
2016-03-01T13:35:52.924Z,13660
2016-03-01T13:36:52.879Z,13536
2016-03-01T13:37:52.867Z,13424
2016-03-01T13:38:52.853Z,13288
2016-03-01T13:39:52.810Z,13148
2016-03-01T13:40:52.797Z,13008
2016-03-01T13:41:52.768Z,12856
2016-03-01T13:42:52.740Z,12652
2016-03-01T13:43:52.747Z,12444